Time;durP1;ratioP1;P1;durP2;ratioP2;P2;SDS_P1;SDS_P2;PMS_P1;PMS_P2;Temp;Humidity;BMP_temperature;BMP_pressure;BME280_temperature;BME280_humidity;BME280_pressure;Samples;Min_cycle;Max_cycle;Signal;HPM_P1;HPM_P2
2022/05/25 00:01:32;;;;;;;5.00;2.35;;;;;;;5.36;57.52;99150.72;5058441;28;20047;-63
2022/05/25 00:03:57;;;;;;;4.78;2.63;;;;;;;5.33;57.46;99146.44;5040509;28;20048;-63
2022/05/25 00:06:22;;;;;;;4.97;2.60;;;;;;;5.29;58.06;99142.28;5023129;28;20198;-65
2022/05/25 00:08:47;;;;;;;4.43;2.65;;;;;;;5.26;57.74;99150.38;5023249;28;20391;-66
2022/05/25 00:11:12;;;;;;;2.90;2.47;;;;;;;5.24;57.99;99148.78;5034650;28;20635;-64
2022/05/25 00:13:36;;;;;;;7.65;3.42;;;;;;;5.21;58.27;99159.50;5040001;28;20042;-65
2022/05/25 00:16:01;;;;;;;5.10;3.03;;;;;;;5.17;58.50;99158.00;5052357;28;20445;-65
2022/05/25 00:18:26;;;;;;;13.75;4.85;;;;;;;5.16;58.72;99162.44;5059561;28;20138;-64
2022/05/25 00:20:51;;;;;;;3.90;2.70;;;;;;;5.14;58.22;99159.03;5066978;28;20042;-63
2022/05/25 00:23:16;;;;;;;4.70;2.97;;;;;;;5.11;58.62;99160.03;5042826;28;20127;-64
2022/05/25 00:25:41;;;;;;;4.40;2.65;;;;;;;5.09;58.61;99161.06;5074847;27;20145;-64
2022/05/25 00:28:08;;;;;;;4.32;2.65;;;;;;;5.11;58.80;99164.47;5090711;27;20543;-65
2022/05/25 00:30:35;;;;;;;2.45;2.10;;;;;;;5.07;59.78;99165.59;5096235;27;20050;-67
2022/05/25 00:33:01;;;;;;;6.75;2.97;;;;;;;5.11;59.48;99170.59;5094506;27;20133;-66
2022/05/25 00:35:29;;;;;;;11.98;3.35;;;;;;;5.12;59.41;99171.47;5105564;27;20039;-66
2022/05/25 00:37:53;;;;;;;6.75;2.85;;;;;;;5.13;59.19;99180.25;5083045;27;20038;-65
2022/05/25 00:40:40;;;;;;;5.68;2.83;;;;;;;5.14;60.18;99180.16;5093400;27;20126;-62
2022/05/25 00:43:07;;;;;;;4.70;2.90;;;;;;;5.17;59.71;99189.72;5083726;27;20043;-61
2022/05/25 00:45:36;;;;;;;8.13;3.60;;;;;;;5.22;59.28;99179.72;5098432;27;20043;-64
2022/05/25 00:48:02;;;;;;;8.85;3.90;;;;;;;5.24;59.56;99183.13;5067274;27;20050;-64
2022/05/25 00:51:11;;;;;;;8.82;3.63;;;;;;;5.29;59.37;99187.22;5056920;27;20127;-63
2022/05/25 00:53:12;;;;;;;10.13;3.83;;;;;;;5.38;58.85;99196.41;5088103;27;20101;-62
2022/05/25 00:55:36;;;;;;;8.82;4.00;;;;;;;5.39;58.83;99187.53;5069993;28;20772;-62
2022/05/25 00:58:01;;;;;;;10.13;4.25;;;;;;;5.42;58.29;99190.84;5069877;27;20043;-62
2022/05/25 01:00:29;;;;;;;7.07;3.78;;;;;;;5.46;58.58;99197.66;5084220;27;20043;-63
2022/05/25 01:03:00;;;;;;;9.25;3.75;;;;;;;5.52;58.36;99195.63;5088480;27;20035;-62
2022/05/25 01:05:52;;;;;;;6.05;2.92;;;;;;;5.56;58.19;99194.47;5057029;27;20531;-63
2022/05/25 01:08:51;;;;;;;13.32;3.70;;;;;;;5.62;58.29;99196.78;5078496;27;20047;-63
2022/05/25 01:11:28;;;;;;;7.38;4.18;;;;;;;5.61;58.08;99192.44;5079647;27;20035;-63
2022/05/25 01:14:04;;;;;;;7.05;3.55;;;;;;;5.65;57.99;99184.22;5093845;27;20094;-61
2022/05/25 01:16:32;;;;;;;8.93;3.70;;;;;;;5.71;57.69;99185.66;5070712;27;20537;-65
2022/05/25 01:19:06;;;;;;;9.68;3.60;;;;;;;5.81;57.72;99194.75;5065338;27;20043;-64
2022/05/25 01:22:05;;;;;;;12.33;4.47;;;;;;;5.88;57.29;99198.75;5066387;27;20063;-64
2022/05/25 01:24:52;;;;;;;8.15;4.18;;;;;;;5.90;57.22;99196.88;5051445;27;20688;-68
2022/05/25 01:27:52;;;;;;;8.88;3.40;;;;;;;5.98;57.27;99204.38;5085974;27;20138;-68
2022/05/25 01:30:19;;;;;;;8.70;3.65;;;;;;;6.00;57.06;99197.19;4994386;28;20059;-64
2022/05/25 01:33:24;;;;;;;5.65;2.92;;;;;;;6.09;56.66;99204.59;4978306;28;20060;-68
2022/05/25 01:36:14;;;;;;;8.73;3.50;;;;;;;6.10;56.87;99203.63;4939773;28;20105;-67
2022/05/25 01:38:50;;;;;;;6.88;3.20;;;;;;;6.04;56.77;99211.94;4955955;28;20046;-64
2022/05/25 01:41:15;;;;;;;7.30;3.53;;;;;;;5.97;56.64;99215.91;4955816;28;20054;-63
2022/05/25 01:43:45;;;;;;;7.55;3.20;;;;;;;5.93;56.82;99217.00;4955357;28;20038;-62
2022/05/25 01:46:19;;;;;;;9.65;3.72;;;;;;;5.87;57.11;99223.47;4955662;28;20058;-65
2022/05/25 01:48:45;;;;;;;7.85;3.70;;;;;;;5.81;57.35;99224.69;4955239;28;20042;-64
2022/05/25 01:51:16;;;;;;;8.02;3.58;;;;;;;5.77;57.59;99222.31;4934718;28;20092;-60
2022/05/25 01:53:46;;;;;;;6.43;3.40;;;;;;;5.75;57.78;99224.22;4919259;28;20048;-62
2022/05/25 01:56:13;;;;;;;5.70;3.58;;;;;;;5.73;57.76;99220.81;4934358;28;20494;-62
2022/05/25 01:58:47;;;;;;;6.10;3.30;;;;;;;5.76;58.09;99231.19;4917906;28;20046;-68
2022/05/25 02:01:13;;;;;;;8.88;3.70;;;;;;;5.77;57.87;99232.91;4933975;28;20055;-64
2022/05/25 02:06:55;;;;;;;8.23;3.63;;;;;;;5.90;58.28;99230.41;4955803;28;20057;-69
2022/05/25 02:09:44;;;;;;;5.72;3.60;;;;;;;5.91;58.34;99235.63;4985851;28;20107;-71
2022/05/25 02:12:35;;;;;;;8.93;3.53;;;;;;;5.97;57.66;99230.00;5049493;27;20042;-68
2022/05/25 02:15:21;;;;;;;6.47;3.80;;;;;;;6.01;57.46;99233.28;5058777;28;20069;-71
2022/05/25 02:18:11;;;;;;;5.43;3.60;;;;;;;6.08;57.42;99238.13;5041510;28;20469;-65
2022/05/25 02:21:26;;;;;;;5.97;3.75;;;;;;;6.22;56.92;99234.63;5076704;28;20100;-69
2022/05/25 02:24:04;;;;;;;7.93;3.70;;;;;;;6.28;56.79;99238.72;5003513;28;20139;-68
2022/05/25 02:26:38;;;;;;;5.68;3.70;;;;;;;6.34;56.71;99238.34;5007155;28;20045;-68
2022/05/25 02:29:07;;;;;;;6.70;3.80;;;;;;;6.36;56.47;99234.66;5007348;28;20048;-66
2022/05/25 02:31:38;;;;;;;8.70;3.58;;;;;;;6.45;56.92;99244.69;5007220;28;20101;-66
2022/05/25 02:34:06;;;;;;;10.88;4.47;;;;;;;6.54;56.42;99230.06;4993964;28;20063;-67
2022/05/25 02:36:37;;;;;;;5.20;3.83;;;;;;;6.67;56.16;99241.56;4967213;28;20037;-67
2022/05/25 02:39:07;;;;;;;6.82;3.67;;;;;;;6.80;55.76;99231.06;4994786;28;20048;-66
2022/05/25 02:41:33;;;;;;;8.23;3.92;;;;;;;6.87;55.58;99232.41;5008377;28;20114;-72
2022/05/25 02:44:00;;;;;;;6.82;3.90;;;;;;;6.95;55.36;99229.25;5004671;28;20567;-67
2022/05/25 02:46:25;;;;;;;7.07;3.83;;;;;;;7.06;54.81;99232.09;4974597;28;20410;-67
2022/05/25 02:48:50;;;;;;;5.80;3.55;;;;;;;7.15;54.87;99229.69;4992356;28;20037;-69
2022/05/25 02:51:15;;;;;;;6.60;4.05;;;;;;;7.27;54.79;99230.69;4991919;28;20120;-67
2022/05/25 02:53:40;;;;;;;6.57;5.05;;;;;;;7.35;54.50;99228.41;5013123;28;20048;-68
2022/05/25 02:56:06;;;;;;;5.72;3.92;;;;;;;7.46;54.08;99223.25;5011920;28;20557;-66
2022/05/25 02:58:30;;;;;;;5.85;3.63;;;;;;;7.56;53.95;99239.44;5033646;27;20127;-67
2022/05/25 03:00:55;;;;;;;6.57;3.10;;;;;;;7.67;53.59;99234.28;5072661;27;20046;-67
2022/05/25 03:03:20;;;;;;;8.73;3.60;;;;;;;7.77;53.48;99226.56;5107598;27;20047;-67
2022/05/25 03:05:45;;;;;;;4.97;3.20;;;;;;;7.86;52.61;99226.78;5067759;27;20046;-68
2022/05/25 03:08:10;;;;;;;5.95;3.50;;;;;;;7.98;52.69;99228.63;5095868;27;20046;-70
2022/05/25 03:10:35;;;;;;;6.47;3.85;;;;;;;8.09;52.83;99227.03;5095622;27;20194;-69
2022/05/25 03:13:00;;;;;;;6.30;3.90;;;;;;;8.20;52.37;99227.16;5077458;27;20049;-69
2022/05/25 03:15:25;;;;;;;5.43;3.42;;;;;;;8.35;52.47;99232.28;5095568;27;20046;-70
2022/05/25 03:17:50;;;;;;;6.28;4.32;;;;;;;8.51;51.30;99231.22;5095661;27;20077;-69
2022/05/25 03:20:16;;;;;;;5.85;3.90;;;;;;;8.63;50.94;99235.69;5095600;27;20067;-70
2022/05/25 03:22:44;;;;;;;7.13;4.30;;;;;;;8.77;50.82;99232.06;5094824;27;20043;-71
2022/05/25 03:25:09;;;;;;;9.02;4.30;;;;;;;8.89;50.01;99232.06;5076957;27;20473;-65
2022/05/25 03:27:34;;;;;;;6.70;4.05;;;;;;;9.01;49.24;99231.19;5076862;28;20515;-67
2022/05/25 03:29:59;;;;;;;6.47;4.03;;;;;;;9.12;49.32;99229.56;5095488;27;20039;-67
2022/05/25 03:32:23;;;;;;;9.45;4.72;;;;;;;9.24;49.28;99239.31;5095364;27;20098;-66
2022/05/25 03:34:49;;;;;;;6.47;4.40;;;;;;;9.35;48.76;99239.38;5077612;27;20043;-70
2022/05/25 03:37:13;;;;;;;7.68;4.45;;;;;;;9.47;48.61;99233.16;5095568;27;20035;-70
2022/05/25 03:39:38;;;;;;;7.47;4.43;;;;;;;9.57;48.39;99236.84;5060114;28;20046;-70
2022/05/25 03:42:07;;;;;;;7.35;4.75;;;;;;;9.74;47.97;99238.25;5095985;28;20039;-71
2022/05/25 03:44:32;;;;;;;7.45;4.80;;;;;;;9.87;48.05;99240.84;5095832;28;20049;-69
2022/05/25 03:46:57;;;;;;;5.88;4.20;;;;;;;9.96;47.27;99241.00;5089130;27;20044;-70
2022/05/25 03:49:21;;;;;;;6.68;4.13;;;;;;;10.01;46.67;99240.66;5077076;28;20096;-70
2022/05/25 03:51:47;;;;;;;8.07;5.15;;;;;;;10.09;46.70;99235.59;5074816;28;20085;-70
2022/05/25 03:54:12;;;;;;;7.65;4.70;;;;;;;10.19;46.84;99247.28;5056637;28;20046;-70
2022/05/25 03:56:37;;;;;;;6.65;5.05;;;;;;;10.32;46.28;99241.88;5056746;28;20410;-70
2022/05/25 03:59:02;;;;;;;6.53;4.40;;;;;;;10.48;45.81;99235.25;5074803;28;20160;-70
2022/05/25 04:01:27;;;;;;;6.85;4.90;;;;;;;10.72;45.09;99239.63;5056544;28;20044;-70
2022/05/25 04:03:52;;;;;;;8.98;5.78;;;;;;;11.02;44.75;99239.88;5075136;28;20491;-70
2022/05/25 04:06:17;;;;;;;9.60;5.35;;;;;;;11.27;43.73;99239.59;5056934;28;20152;-73
2022/05/25 04:08:42;;;;;;;10.02;5.45;;;;;;;11.46;43.27;99243.44;5044788;28;20107;-70
2022/05/25 04:11:06;;;;;;;10.32;5.13;;;;;;;11.62;43.37;99247.38;5060089;28;20049;-70
2022/05/25 04:13:31;;;;;;;9.38;4.70;;;;;;;11.77;42.65;99239.97;5046902;28;20078;-68
2022/05/25 04:15:56;;;;;;;6.70;4.75;;;;;;;11.84;42.38;99241.19;5056609;28;20556;-67
2022/05/25 04:18:21;;;;;;;5.55;3.42;;;;;;;11.86;42.00;99241.03;5039527;28;20043;-68
2022/05/25 04:20:45;;;;;;;7.63;3.95;;;;;;;11.86;42.29;99239.22;5056328;28;20040;-69
2022/05/25 04:23:11;;;;;;;3.90;2.88;;;;;;;11.89;41.31;99244.31;5074573;28;20073;-70
2022/05/25 04:25:36;;;;;;;5.53;3.50;;;;;;;11.97;41.62;99243.66;5070435;28;20123;-70
2022/05/25 04:28:00;;;;;;;4.05;3.22;;;;;;;12.20;40.91;99241.72;5059664;28;20108;-72
2022/05/25 04:30:28;;;;;;;4.88;3.65;;;;;;;12.53;40.10;99248.69;5077058;28;20054;-70
2022/05/25 04:32:53;;;;;;;3.40;2.65;;;;;;;12.83;39.19;99242.53;5095694;28;20058;-71
2022/05/25 04:35:18;;;;;;;3.13;2.58;;;;;;;13.09;38.53;99243.78;5098188;27;20039;-66
2022/05/25 04:37:52;;;;;;;3.15;2.20;;;;;;;13.35;37.48;99239.66;5080907;27;20051;-68
2022/05/25 04:40:22;;;;;;;3.58;2.70;;;;;;;13.75;36.86;99249.47;5099127;27;20041;-70
2022/05/25 04:42:46;;;;;;;5.38;3.45;;;;;;;13.99;36.32;99247.25;5063304;27;20050;-69
2022/05/25 04:45:12;;;;;;;3.97;3.08;;;;;;;14.27;35.42;99250.03;5080349;27;20057;-70
2022/05/25 04:47:37;;;;;;;3.17;2.83;;;;;;;14.70;35.15;99254.94;5098850;27;20094;-69
2022/05/25 04:50:02;;;;;;;3.35;2.33;;;;;;;14.87;34.19;99262.25;5082205;27;20042;-70
2022/05/25 04:52:28;;;;;;;4.88;2.60;;;;;;;15.13;33.51;99254.34;5080127;27;20042;-69
2022/05/25 04:54:53;;;;;;;3.30;2.28;;;;;;;15.62;32.85;99261.22;5080275;27;20047;-69
2022/05/25 04:57:22;;;;;;;3.53;2.20;;;;;;;16.18;32.12;99257.41;5079904;27;20092;-69
2022/05/25 04:59:48;;;;;;;4.20;2.80;;;;;;;16.64;31.36;99259.00;5063046;27;20543;-68
2022/05/25 05:02:14;;;;;;;3.83;2.28;;;;;;;17.03;30.37;99262.97;5098246;27;20047;-68
2022/05/25 05:04:38;;;;;;;4.68;2.30;;;;;;;17.40;29.31;99265.31;5079622;27;20087;-69
2022/05/25 05:07:04;;;;;;;5.60;2.53;;;;;;;17.72;28.76;99261.91;5097902;27;20039;-68
2022/05/25 05:09:33;;;;;;;4.07;2.30;;;;;;;17.85;27.71;99269.53;5062574;27;20062;-70
2022/05/25 05:11:58;;;;;;;6.40;2.50;;;;;;;17.88;27.96;99261.13;5097472;27;20544;-68
2022/05/25 05:14:23;;;;;;;2.00;1.88;;;;;;;17.88;27.86;99253.03;5079685;27;20572;-69
2022/05/25 05:16:48;;;;;;;4.15;2.25;;;;;;;17.79;27.87;99256.72;5079788;27;20039;-69
2022/05/25 05:19:25;;;;;;;5.10;2.45;;;;;;;17.64;28.26;99256.50;5063027;27;20070;-69
2022/05/25 05:21:59;;;;;;;2.90;2.08;;;;;;;17.58;28.32;99256.28;5063273;27;20119;-68
2022/05/25 05:24:25;;;;;;;2.30;1.70;;;;;;;17.54;28.50;99257.63;5097826;27;20535;-67
2022/05/25 05:26:50;;;;;;;2.17;1.92;;;;;;;17.66;28.25;99257.19;5098591;27;20049;-68
2022/05/25 05:29:15;;;;;;;2.72;1.88;;;;;;;17.93;28.28;99256.09;5098031;27;20042;-68
2022/05/25 05:31:39;;;;;;;1.63;1.52;;;;;;;18.15;26.90;99251.91;5062644;27;20047;-67
2022/05/25 05:34:05;;;;;;;2.17;1.98;;;;;;;18.27;26.52;99244.31;5098370;27;20394;-68
2022/05/25 05:37:08;;;;;;;2.22;2.03;;;;;;;18.56;27.97;99239.22;5079795;27;20050;-67
2022/05/25 05:39:37;;;;;;;1.77;1.67;;;;;;;18.43;26.18;99249.69;5071670;27;20100;-68
2022/05/25 05:42:10;;;;;;;3.95;1.80;;;;;;;18.29;26.69;99242.25;5078932;27;20039;-68
2022/05/25 05:44:49;;;;;;;2.75;2.25;;;;;;;18.24;26.78;99250.88;5062254;27;20031;-68
2022/05/25 05:47:19;;;;;;;4.82;2.20;;;;;;;18.31;25.54;99246.50;5061180;27;20047;-68
2022/05/25 05:49:44;;;;;;;5.35;2.40;;;;;;;18.55;25.85;99244.78;5097351;27;20126;-67
2022/05/25 05:52:09;;;;;;;2.80;2.30;;;;;;;19.08;25.92;99238.81;5076515;27;20129;-67
2022/05/25 05:54:35;;;;;;;4.15;2.33;;;;;;;19.74;25.41;99240.25;5076795;28;20046;-66
2022/05/25 05:57:00;;;;;;;3.58;2.45;;;;;;;20.41;24.62;99244.03;5058312;28;20088;-66
2022/05/25 05:59:25;;;;;;;2.80;2.35;;;;;;;21.30;23.91;99235.03;5077250;28;20409;-67
2022/05/25 06:01:50;;;;;;;4.53;2.65;;;;;;;22.49;23.30;99240.94;5076601;28;20460;-68
2022/05/25 06:04:16;;;;;;;5.22;2.65;;;;;;;22.79;21.90;99240.63;5077071;28;20048;-68
2022/05/25 06:06:42;;;;;;;5.32;3.20;;;;;;;23.39;21.52;99233.66;5076654;28;20139;-66
2022/05/25 06:09:06;;;;;;;2.95;2.50;;;;;;;23.57;20.62;99235.03;5058291;28;20531;-68
2022/05/25 06:11:32;;;;;;;4.40;2.60;;;;;;;23.40;20.47;99235.34;5058282;28;20485;-69
2022/05/25 06:13:57;;;;;;;4.47;3.00;;;;;;;22.74;20.97;99239.50;5076483;28;20035;-67
2022/05/25 06:21:48;;;;;;;3.63;2.80;;;;;;;20.69;23.15;99247.00;5076315;28;20051;-70
2022/05/25 06:24:13;;;;;;;3.25;2.75;;;;;;;19.78;23.68;99253.25;5074043;28;20181;-73
2022/05/25 06:26:38;;;;;;;3.92;2.83;;;;;;;19.09;25.17;99249.44;5056436;28;20051;-72
2022/05/25 06:29:03;;;;;;;3.72;3.03;;;;;;;19.06;25.36;99247.13;5021066;28;20036;-72
2022/05/25 06:31:29;;;;;;;3.83;2.60;;;;;;;20.63;23.52;99247.75;5058718;28;20391;-74
2022/05/25 06:33:54;;;;;;;4.00;2.60;;;;;;;22.80;21.31;99255.88;5022382;28;20066;-66
2022/05/25 06:36:25;;;;;;;3.92;3.00;;;;;;;24.57;19.36;99257.72;5037774;28;20125;-65
2022/05/25 06:38:51;;;;;;;3.92;3.00;;;;;;;24.41;19.54;99255.41;5054712;28;20051;-65
2022/05/25 06:41:16;;;;;;;5.82;3.53;;;;;;;23.31;20.25;99265.63;5037678;28;20040;-66
2022/05/25 06:43:41;;;;;;;6.97;3.70;;;;;;;21.79;21.28;99261.50;5038158;28;20050;-73
2022/05/25 06:46:07;;;;;;;3.17;2.88;;;;;;;20.51;22.40;99260.88;5065880;28;20051;-71
2022/05/25 06:48:32;;;;;;;8.27;3.35;;;;;;;19.57;23.96;99251.16;5049312;28;20039;-71
2022/05/25 06:50:57;;;;;;;4.38;2.55;;;;;;;19.12;24.35;99261.78;5061452;28;20436;-72
2022/05/25 06:53:21;;;;;;;11.27;3.88;;;;;;;19.67;23.76;99255.50;5037801;28;20040;-71
2022/05/25 06:55:46;;;;;;;5.25;2.88;;;;;;;20.92;22.84;99263.19;5056034;28;20123;-71
2022/05/25 06:58:11;;;;;;;3.05;2.63;;;;;;;22.49;21.08;99249.94;5061232;28;20033;-71
2022/05/25 07:00:36;;;;;;;3.15;2.60;;;;;;;23.75;19.44;99249.75;5043800;28;20059;-71
2022/05/25 07:03:06;;;;;;;3.88;3.17;;;;;;;25.12;18.03;99252.06;5068980;28;20411;-72
2022/05/25 07:05:32;;;;;;;3.55;2.97;;;;;;;26.67;17.68;99255.34;5049288;28;20120;-71
2022/05/25 07:07:57;;;;;;;4.47;3.25;;;;;;;28.07;16.17;99244.59;5072928;28;20043;-72
2022/05/25 07:10:22;;;;;;;2.80;2.60;;;;;;;28.43;15.91;99263.72;5047354;28;20514;-70
2022/05/25 07:12:47;;;;;;;3.67;3.38;;;;;;;27.54;16.62;99249.91;5041320;28;20044;-72
2022/05/25 07:15:12;;;;;;;3.67;3.08;;;;;;;27.76;16.53;99256.59;5059061;28;20051;-72
2022/05/25 07:17:37;;;;;;;4.32;3.42;;;;;;;29.06;15.41;99254.03;5056748;28;20492;-69
2022/05/25 07:20:03;;;;;;;3.53;3.25;;;;;;;29.76;14.42;99256.72;5038188;28;20039;-69
2022/05/25 07:22:28;;;;;;;3.65;3.00;;;;;;;28.89;14.79;99251.19;5075887;28;20038;-69
2022/05/25 07:24:53;;;;;;;3.55;3.08;;;;;;;27.43;15.85;99248.72;5039089;28;20068;-70
2022/05/25 07:27:17;;;;;;;5.15;3.00;;;;;;;27.02;16.24;99242.00;5073776;28;20044;-71
2022/05/25 07:29:42;;;;;;;3.05;2.78;;;;;;;27.62;15.93;99239.50;5068174;28;20043;-72
2022/05/25 07:32:09;;;;;;;3.13;2.80;;;;;;;27.69;15.99;99242.13;5046111;28;20385;-72
2022/05/25 07:34:39;;;;;;;4.78;3.45;;;;;;;27.06;16.69;99251.44;5066145;28;20059;-71
2022/05/25 07:37:16;;;;;;;3.13;2.83;;;;;;;27.31;16.32;99242.38;5056238;28;20047;-74
2022/05/25 07:40:03;;;;;;;3.47;3.00;;;;;;;27.08;15.54;99248.50;5037109;28;20683;-72
2022/05/25 07:42:30;;;;;;;3.20;2.83;;;;;;;26.20;16.74;99239.44;5055339;28;20067;-73
2022/05/25 07:44:58;;;;;;;3.25;2.50;;;;;;;25.44;17.07;99250.28;5036896;28;20051;-67
2022/05/25 07:47:23;;;;;;;3.22;2.92;;;;;;;24.38;17.91;99242.19;5054894;28;20040;-68
2022/05/25 07:49:48;;;;;;;3.92;2.90;;;;;;;23.42;18.64;99238.72;5038492;28;20051;-67
2022/05/25 07:52:13;;;;;;;4.88;3.05;;;;;;;22.61;19.55;99239.38;5058311;28;20048;-70
2022/05/25 07:54:43;;;;;;;5.80;3.00;;;;;;;21.78;19.64;99243.56;5054514;28;20043;-68
2022/05/25 07:57:07;;;;;;;3.88;2.80;;;;;;;22.35;20.20;99238.09;5054168;28;20043;-68
2022/05/25 07:59:32;;;;;;;3.05;2.42;;;;;;;23.19;19.51;99238.16;5055169;28;20044;-68
2022/05/25 08:07:35;;;;;;;3.03;2.72;;;;;;;24.91;18.90;99248.50;5036368;28;20036;-72
2022/05/25 08:10:13;;;;;;;5.25;3.00;;;;;;;27.78;16.84;99247.06;5057003;28;20036;-66
2022/05/25 08:12:39;;;;;;;4.43;2.90;;;;;;;29.63;14.71;99251.50;5023771;28;20506;-71
2022/05/25 08:15:06;;;;;;;4.07;3.05;;;;;;;29.35;14.70;99261.28;5040218;28;20039;-72
2022/05/25 08:17:31;;;;;;;3.50;3.20;;;;;;;28.72;15.00;99251.00;5058653;28;20032;-73
2022/05/25 08:19:55;;;;;;;3.88;3.15;;;;;;;28.24;15.07;99244.78;5058388;28;20048;-73
2022/05/25 08:22:20;;;;;;;3.92;3.15;;;;;;;27.87;15.18;99258.56;5058399;28;20137;-72
2022/05/25 08:24:45;;;;;;;4.13;3.70;;;;;;;27.43;15.37;99246.81;5043615;28;20091;-72
2022/05/25 08:27:10;;;;;;;5.15;3.17;;;;;;;27.25;15.70;99249.56;5039790;28;20066;-72
2022/05/25 08:29:34;;;;;;;3.47;3.17;;;;;;;29.01;15.16;99253.94;5040391;28;20044;-73
2022/05/25 08:31:59;;;;;;;4.00;3.28;;;;;;;31.54;13.57;99241.41;5058292;28;20068;-73
2022/05/25 08:34:26;;;;;;;4.72;3.90;;;;;;;33.87;11.44;99255.41;5023892;28;20130;-72
2022/05/25 08:36:51;;;;;;;5.30;3.40;;;;;;;35.92;10.81;99253.19;5040361;28;20486;-73
2022/05/25 08:39:17;;;;;;;4.95;4.00;;;;;;;37.49;10.08;99267.06;5040727;28;20047;-68
2022/05/25 08:41:43;;;;;;;7.10;4.07;;;;;;;37.07;10.14;99263.00;5022645;28;20032;-70
2022/05/25 08:44:10;;;;;;;4.07;3.78;;;;;;;35.51;10.75;99265.53;5039722;28;20046;-71
2022/05/25 08:46:36;;;;;;;5.38;3.60;;;;;;;33.36;11.56;99259.00;5057827;28;20074;-71
2022/05/25 08:49:06;;;;;;;4.80;3.58;;;;;;;31.40;12.75;99250.03;5057454;28;20040;-71
2022/05/25 08:51:33;;;;;;;5.50;4.32;;;;;;;31.49;13.19;99244.09;5039144;28;20044;-67
2022/05/25 08:54:00;;;;;;;4.32;3.92;;;;;;;33.23;11.66;99254.78;5057491;28;20028;-67
2022/05/25 08:56:40;;;;;;;3.65;3.35;;;;;;;33.77;10.87;99243.47;5057331;28;20044;-68
2022/05/25 08:59:23;;;;;;;4.72;4.20;;;;;;;34.23;10.30;99241.69;5022260;28;20040;-67
2022/05/25 09:01:51;;;;;;;5.47;4.25;;;;;;;35.37;10.20;99245.06;5057346;28;20043;-67
2022/05/25 09:04:38;;;;;;;4.07;3.70;;;;;;;36.56;9.20;99251.47;5038881;28;20410;-67
2022/05/25 09:07:26;;;;;;;5.32;4.38;;;;;;;38.54;9.46;99252.09;5057772;28;20040;-66
2022/05/25 09:09:52;;;;;;;4.90;4.50;;;;;;;38.70;8.69;99257.13;5022764;28;20044;-68
2022/05/25 09:12:35;;;;;;;7.22;5.20;;;;;;;40.37;8.52;99252.25;5039330;28;20036;-68
2022/05/25 09:15:27;;;;;;;5.55;5.07;;;;;;;40.94;7.89;99258.97;5039674;28;20517;-68
2022/05/25 09:18:03;;;;;;;6.53;4.80;;;;;;;38.65;8.43;99250.81;5039016;28;20032;-67
2022/05/25 09:20:33;;;;;;;4.57;4.18;;;;;;;35.30;10.20;99245.38;5038439;28;20048;-69
2022/05/25 09:22:58;;;;;;;4.38;4.05;;;;;;;32.35;11.75;99240.47;5038928;28;20126;-68
2022/05/25 09:25:24;;;;;;;4.28;3.88;;;;;;;30.05;12.79;99238.34;5039232;28;20060;-70
2022/05/25 09:28:15;;;;;;;5.88;3.97;;;;;;;28.60;14.10;99236.41;5040315;28;20380;-67
2022/05/25 09:30:41;;;;;;;3.50;3.20;;;;;;;26.56;15.20;99231.44;5057343;28;20039;-69
2022/05/25 09:33:27;;;;;;;6.63;3.70;;;;;;;26.47;16.15;99227.31;5055737;28;20043;-69
2022/05/25 09:35:59;;;;;;;4.35;3.72;;;;;;;28.50;13.75;99226.03;5056943;28;20036;-68
2022/05/25 09:38:45;;;;;;;3.92;3.22;;;;;;;31.78;12.46;99228.22;5038718;28;20048;-68
2022/05/25 09:41:14;;;;;;;5.22;4.10;;;;;;;33.49;10.65;99231.72;5055555;28;20051;-69
2022/05/25 09:43:40;;;;;;;4.47;4.07;;;;;;;35.80;10.58;99235.22;5056846;28;20040;-68
2022/05/25 09:46:16;;;;;;;4.47;4.15;;;;;;;38.15;8.86;99245.66;5063026;28;20032;-70
2022/05/25 09:48:49;;;;;;;5.18;4.68;;;;;;;39.30;7.75;99239.63;5066633;28;20592;-69
2022/05/25 09:51:36;;;;;;;6.28;5.72;;;;;;;39.91;7.51;99231.75;5048640;28;20044;-69
2022/05/25 09:54:25;;;;;;;6.30;5.70;;;;;;;41.13;7.31;99240.03;5039065;28;20047;-68
2022/05/25 09:56:55;;;;;;;5.85;5.38;;;;;;;42.22;6.76;99246.69;5056913;28;20042;-68
2022/05/25 09:59:32;;;;;;;7.47;6.78;;;;;;;41.69;7.14;99244.91;5038877;28;20052;-69
2022/05/25 10:01:57;;;;;;;5.97;5.40;;;;;;;40.11;6.97;99226.84;5055726;28;20047;-68
2022/05/25 10:04:34;;;;;;;6.55;5.88;;;;;;;39.50;7.22;99228.13;5055489;28;20117;-68
2022/05/25 10:07:00;;;;;;;6.75;6.15;;;;;;;39.61;7.68;99221.22;5055469;28;20482;-70
2022/05/25 10:09:27;;;;;;;6.10;5.50;;;;;;;40.08;7.39;99224.66;5055446;28;20046;-68
2022/05/25 10:11:58;;;;;;;5.63;5.20;;;;;;;38.50;7.88;99224.81;5056432;28;20039;-68
2022/05/25 10:14:37;;;;;;;6.53;5.05;;;;;;;35.99;9.42;99219.63;5038229;28;20466;-69
2022/05/25 10:17:14;;;;;;;4.60;4.30;;;;;;;33.41;10.67;99217.59;5055967;28;20445;-68
2022/05/25 10:19:55;;;;;;;6.50;4.00;;;;;;;30.91;11.35;99209.63;5056218;28;20044;-69
2022/05/25 10:22:46;;;;;;;4.78;4.30;;;;;;;28.99;13.41;99207.50;5054676;28;20036;-68
2022/05/25 10:25:41;;;;;;;7.03;3.92;;;;;;;29.62;13.46;99206.69;5077676;27;20192;-68
2022/05/25 10:28:28;;;;;;;5.68;3.67;;;;;;;29.71;12.82;99190.66;5061041;27;20509;-67
2022/05/25 10:37:10;;;;;;;9.32;3.90;;;;;;;24.18;16.51;99189.53;5077734;27;20383;-68
2022/05/25 10:39:45;;;;;;;4.35;3.10;;;;;;;23.34;17.51;99179.03;5078210;27;20051;-69
2022/05/25 10:42:18;;;;;;;3.50;2.92;;;;;;;22.95;18.21;99176.94;5078327;27;20092;-67
2022/05/25 10:44:43;;;;;;;4.43;3.90;;;;;;;22.52;18.75;99169.94;5077717;27;20043;-69
2022/05/25 10:47:21;;;;;;;4.40;2.85;;;;;;;22.33;19.62;99175.03;5077772;27;20098;-67
2022/05/25 10:49:46;;;;;;;6.40;3.50;;;;;;;21.80;20.16;99170.91;5096123;27;20103;-67
2022/05/25 10:52:37;;;;;;;6.75;3.28;;;;;;;21.44;20.75;99167.41;5060992;27;20130;-68
2022/05/25 10:55:05;;;;;;;4.15;2.53;;;;;;;20.82;20.91;99159.66;5096091;27;20046;-66
2022/05/25 10:57:39;;;;;;;3.67;3.10;;;;;;;20.32;21.39;99161.16;5095699;27;20027;-66
2022/05/25 11:00:04;;;;;;;;;;;;;;;20.50;19.97;99164.41;5077996;27;20043;-67
2022/05/25 11:03:00;;;;;;;6.28;3.50;;;;;;;19.92;20.95;99157.78;5060026;27;19915;-67
2022/05/25 11:05:36;;;;;;;3.65;2.85;;;;;;;19.53;21.27;99151.63;5095748;27;20413;-66
2022/05/25 11:08:10;;;;;;;5.50;3.42;;;;;;;19.39;22.39;99150.53;5077311;27;20039;-69
2022/05/25 11:11:00;;;;;;;3.70;2.95;;;;;;;19.31;21.94;99147.00;5095780;27;20068;-66
2022/05/25 11:13:41;;;;;;;4.75;2.78;;;;;;;19.09;22.48;99154.88;5060044;27;20130;-67
2022/05/25 11:16:24;;;;;;;6.45;3.30;;;;;;;18.98;22.83;99149.88;5077441;27;20061;-68
2022/05/25 11:18:58;;;;;;;6.28;2.67;;;;;;;18.77;23.54;99141.50;5090454;27;20084;-67
2022/05/25 11:21:41;;;;;;;3.78;3.25;;;;;;;18.55;24.08;99142.22;5068041;28;20598;-65
2022/05/25 11:24:34;;;;;;;4.05;2.95;;;;;;;18.20;23.92;99136.19;5087705;27;20047;-64
2022/05/25 11:27:05;;;;;;;5.80;3.97;;;;;;;18.06;24.06;99137.72;5065240;28;20552;-66
2022/05/25 11:29:44;;;;;;;4.45;3.30;;;;;;;17.82;24.30;99136.91;5056090;28;20571;-67
2022/05/25 11:32:28;;;;;;;4.38;3.20;;;;;;;17.76;24.21;99139.25;5075348;28;20044;-67
2022/05/25 11:34:55;;;;;;;4.90;2.88;;;;;;;17.49;24.70;99139.53;5056479;28;20043;-66
2022/05/25 11:37:47;;;;;;;4.15;3.10;;;;;;;17.39;25.32;99141.50;5056605;28;20046;-67
2022/05/25 11:40:30;;;;;;;6.63;3.40;;;;;;;17.25;25.58;99134.94;5039782;28;20062;-67
2022/05/25 11:43:01;;;;;;;5.45;3.05;;;;;;;17.17;25.92;99137.59;5060915;28;20059;-66
2022/05/25 11:45:48;;;;;;;6.40;2.85;;;;;;;17.05;25.62;99144.28;5057312;28;20044;-65
2022/05/25 11:48:34;;;;;;;5.15;3.00;;;;;;;16.97;26.43;99147.78;5078474;28;20055;-68
2022/05/25 11:51:23;;;;;;;6.47;3.10;;;;;;;16.98;26.04;99145.94;5079047;28;20122;-67
2022/05/25 11:54:26;;;;;;;4.72;3.38;;;;;;;16.90;26.66;99143.22;5065825;28;20117;-65
2022/05/25 11:57:15;;;;;;;3.70;2.70;;;;;;;16.79;26.32;99144.34;5059301;28;20035;-68
2022/05/25 11:59:44;;;;;;;3.65;2.50;;;;;;;16.76;26.59;99149.22;5057393;28;20071;-66
2022/05/25 12:02:42;;;;;;;5.57;3.30;;;;;;;16.94;26.50;99140.03;5076632;28;20040;-65
2022/05/25 12:05:31;;;;;;;4.32;2.97;;;;;;;17.23;25.75;99130.72;5058905;28;20047;-66
2022/05/25 12:08:17;;;;;;;3.03;2.72;;;;;;;17.33;25.19;99134.09;5043569;28;20113;-65
2022/05/25 12:10:44;;;;;;;4.07;2.92;;;;;;;17.44;26.06;99133.78;5076104;28;20494;-65
2022/05/25 12:13:28;;;;;;;5.60;3.15;;;;;;;17.52;25.93;99132.94;5052240;28;20066;-69
2022/05/25 12:16:03;;;;;;;4.68;2.70;;;;;;;17.54;25.38;99131.78;5054852;28;20466;-68